createdAt,value
2018-12-16T00:00:58.465Z,20.85
2018-12-16T00:03:27.947Z,22.93
2018-12-16T00:05:57.872Z,23.70
2018-12-16T00:08:27.601Z,22.15
2018-12-16T00:10:57.059Z,21.65
2018-12-16T00:13:26.464Z,19.20
2018-12-16T00:15:55.875Z,21.27
2018-12-16T00:18:25.259Z,21.37
2018-12-16T00:20:54.741Z,18.42
2018-12-16T00:23:24.098Z,19.82
2018-12-16T00:25:53.493Z,22.27
2018-12-16T00:28:22.880Z,19.85
2018-12-16T00:30:52.250Z,24.18
2018-12-16T00:33:21.701Z,26.73
2018-12-16T00:35:51.056Z,21.70
2018-12-16T00:38:20.573Z,19.00
2018-12-16T00:40:50.077Z,21.45
2018-12-16T00:43:19.558Z,22.27
2018-12-16T00:45:48.917Z,24.23
2018-12-16T00:48:18.356Z,27.70
2018-12-16T00:50:47.721Z,29.48
2018-12-16T00:53:17.203Z,25.60
2018-12-16T00:55:46.668Z,22.00
2018-12-16T00:58:16.026Z,22.42
2018-12-16T01:00:45.500Z,22.70
2018-12-16T01:03:14.857Z,27.90
2018-12-16T01:05:44.285Z,28.20
2018-12-16T01:08:13.784Z,18.67
2018-12-16T01:10:43.141Z,24.95
2018-12-16T01:13:12.598Z,19.50
2018-12-16T01:15:41.975Z,23.50
2018-12-16T01:18:11.391Z,25.52
2018-12-16T01:20:40.944Z,23.52
2018-12-16T01:23:10.485Z,24.92
2018-12-16T01:25:39.826Z,29.25
2018-12-16T01:28:10.005Z,26.35
2018-12-16T01:30:39.369Z,24.20
2018-12-16T01:33:08.645Z,19.87
2018-12-16T01:35:38.054Z,20.70
2018-12-16T01:38:07.761Z,15.43
2018-12-16T01:40:37.221Z,13.50
2018-12-16T01:43:06.595Z,16.82
2018-12-16T01:45:36.037Z,15.28
2018-12-16T01:48:05.442Z,15.78
2018-12-16T01:50:34.852Z,20.45
2018-12-16T01:53:04.232Z,16.62
2018-12-16T01:55:33.605Z,17.57
2018-12-16T01:58:03.038Z,15.68
2018-12-16T02:00:32.461Z,18.50
2018-12-16T02:03:02.446Z,15.55
2018-12-16T02:05:31.857Z,17.92
2018-12-16T02:08:01.252Z,18.77
2018-12-16T02:10:30.615Z,15.55
2018-12-16T02:13:00.085Z,16.80
2018-12-16T02:15:29.874Z,14.25
2018-12-16T02:17:59.421Z,15.10
2018-12-16T02:20:28.910Z,17.45
2018-12-16T02:22:58.401Z,16.85
2018-12-16T02:25:27.764Z,17.92
2018-12-16T02:27:57.130Z,18.00
2018-12-16T02:30:28.436Z,16.35
2018-12-16T02:32:57.913Z,12.40
2018-12-16T02:35:27.304Z,14.75
2018-12-16T02:37:56.814Z,15.35
2018-12-16T02:40:26.187Z,14.00
2018-12-16T02:42:55.662Z,14.18
2018-12-16T02:45:25.122Z,15.23
2018-12-16T02:47:54.517Z,17.95
2018-12-16T02:50:24.118Z,13.58
2018-12-16T02:52:53.670Z,16.97
2018-12-16T02:55:23.041Z,14.30
2018-12-16T02:57:52.401Z,16.17
2018-12-16T03:00:21.799Z,14.13
2018-12-16T03:02:51.450Z,15.43
2018-12-16T03:05:20.975Z,14.45
2018-12-16T03:07:50.344Z,14.93
2018-12-16T03:10:19.803Z,15.40
2018-12-16T03:12:49.174Z,13.53
2018-12-16T03:15:18.544Z,13.78
2018-12-16T03:17:48.060Z,15.20
2018-12-16T03:20:17.553Z,13.43
2018-12-16T03:22:47.022Z,12.43
2018-12-16T03:25:16.391Z,15.72
2018-12-16T03:27:45.793Z,12.33
2018-12-16T03:30:15.179Z,12.13
2018-12-16T03:32:44.779Z,12.58
2018-12-16T03:35:14.230Z,15.58
2018-12-16T03:37:43.589Z,11.40
2018-12-16T03:40:13.067Z,14.50
2018-12-16T03:42:42.562Z,14.25
2018-12-16T03:45:12.002Z,15.32
2018-12-16T03:47:41.458Z,14.03
2018-12-16T03:50:10.828Z,16.25
2018-12-16T03:52:40.184Z,13.93
2018-12-16T03:55:09.679Z,15.18
2018-12-16T03:57:39.271Z,15.75
2018-12-16T04:00:08.724Z,12.90
2018-12-16T04:02:38.100Z,14.70
2018-12-16T04:05:07.609Z,14.93
2018-12-16T04:07:36.978Z,15.25
2018-12-16T04:10:06.841Z,21.68
2018-12-16T04:12:36.365Z,19.82
2018-12-16T04:15:06.565Z,17.77
2018-12-16T04:17:36.077Z,17.90
2018-12-16T04:20:06.158Z,17.62
2018-12-16T04:22:35.536Z,16.37
2018-12-16T04:25:05.485Z,15.45
2018-12-16T04:27:34.986Z,13.83
2018-12-16T04:30:05.438Z,15.03
2018-12-16T04:32:34.935Z,15.23
2018-12-16T04:35:05.802Z,12.25
2018-12-16T04:37:35.185Z,21.30
2018-12-16T04:40:04.977Z,16.20
2018-12-16T04:42:35.472Z,16.42
2018-12-16T04:45:05.312Z,12.82
2018-12-16T04:47:34.831Z,15.90
2018-12-16T04:50:04.625Z,17.10
2018-12-16T04:52:34.117Z,17.85
2018-12-16T04:55:03.631Z,12.93
2018-12-16T04:57:33.013Z,14.80
2018-12-16T05:00:02.391Z,12.82
2018-12-16T05:02:31.733Z,15.48
2018-12-16T05:05:01.111Z,16.90
2018-12-16T05:07:30.465Z,14.13
2018-12-16T05:10:09.987Z,13.22
2018-12-16T05:12:39.481Z,12.98
2018-12-16T05:15:08.898Z,16.55
2018-12-16T05:17:38.518Z,15.15
2018-12-16T05:20:07.995Z,12.10
2018-12-16T05:22:37.374Z,13.05
2018-12-16T05:25:06.829Z,14.63
2018-12-16T05:27:36.433Z,13.50
2018-12-16T05:30:06.162Z,14.20
2018-12-16T05:32:35.607Z,12.90
2018-12-16T05:35:05.431Z,12.73
2018-12-16T05:37:34.796Z,12.55
2018-12-16T05:40:04.389Z,14.18
2018-12-16T05:42:33.742Z,13.65
2018-12-16T05:45:03.148Z,16.10
2018-12-16T05:47:32.733Z,12.45
2018-12-16T05:50:02.445Z,17.10
2018-12-16T05:52:31.789Z,16.00
2018-12-16T05:55:01.178Z,16.20
2018-12-16T05:57:30.849Z,19.30
2018-12-16T06:00:00.311Z,17.50
2018-12-16T06:02:29.801Z,20.35
2018-12-16T06:04:59.265Z,17.40
2018-12-16T06:07:28.656Z,19.52
2018-12-16T06:09:58.034Z,19.57
2018-12-16T06:12:27.413Z,19.73
2018-12-16T06:14:56.979Z,31.73
2018-12-16T06:17:26.313Z,32.93
2018-12-16T06:19:55.680Z,28.80
2018-12-16T06:22:25.113Z,25.65
2018-12-16T06:24:54.653Z,20.08
2018-12-16T06:27:24.049Z,16.85
2018-12-16T06:29:53.572Z,15.98
2018-12-16T06:32:22.905Z,16.07
2018-12-16T06:34:52.341Z,12.73
2018-12-16T06:37:21.825Z,15.08
2018-12-16T06:39:51.207Z,14.50
2018-12-16T06:42:20.610Z,14.07
2018-12-16T06:44:50.029Z,15.20
2018-12-16T06:47:19.485Z,14.85
2018-12-16T06:49:48.856Z,13.78
2018-12-16T06:52:18.319Z,12.70
2018-12-16T06:54:47.737Z,15.32
2018-12-16T06:57:17.121Z,60.63
2018-12-16T06:59:46.493Z,73.78
2018-12-16T07:02:15.857Z,43.25
2018-12-16T07:04:45.227Z,31.75
2018-12-16T07:07:14.829Z,22.20
2018-12-16T07:09:44.185Z,19.27
2018-12-16T07:12:13.550Z,14.93
2018-12-16T07:14:42.897Z,14.23
2018-12-16T07:17:12.434Z,13.08
2018-12-16T07:19:41.942Z,13.75
2018-12-16T07:22:11.497Z,18.15
2018-12-16T07:24:40.966Z,17.77
2018-12-16T07:27:10.382Z,17.80
2018-12-16T07:29:39.741Z,14.98
2018-12-16T07:32:09.084Z,13.20
2018-12-16T07:34:38.698Z,18.80
2018-12-16T07:37:08.154Z,18.50
2018-12-16T07:39:37.673Z,20.50
2018-12-16T07:42:07.048Z,24.15
2018-12-16T07:44:36.633Z,16.20
2018-12-16T07:47:06.101Z,18.50
2018-12-16T07:49:35.504Z,17.80
2018-12-16T07:52:04.882Z,16.60
2018-12-16T07:54:34.506Z,17.25
2018-12-16T07:57:03.848Z,17.50
2018-12-16T07:59:33.209Z,18.80
2018-12-16T08:02:02.617Z,18.57
2018-12-16T08:04:31.992Z,17.23
2018-12-16T08:07:01.381Z,25.90
2018-12-16T08:09:31.182Z,18.77
2018-12-16T08:12:00.548Z,22.82
2018-12-16T08:14:29.909Z,23.38
2018-12-16T08:16:59.333Z,26.75
2018-12-16T08:19:29.182Z,27.17
2018-12-16T08:21:58.726Z,23.73
2018-12-16T08:24:28.076Z,35.68
2018-12-16T08:26:57.544Z,47.23
2018-12-16T08:29:33.441Z,37.42
2018-12-16T08:32:02.952Z,25.27
2018-12-16T08:34:32.461Z,23.67
2018-12-16T08:37:01.941Z,26.25
2018-12-16T08:39:31.545Z,26.93
2018-12-16T08:42:00.964Z,25.02
2018-12-16T08:44:30.441Z,24.60
2018-12-16T08:46:59.847Z,25.90
2018-12-16T08:49:29.246Z,30.25
2018-12-16T08:51:58.596Z,34.70
2018-12-16T08:54:30.181Z,25.95
2018-12-16T08:56:59.373Z,23.73
2018-12-16T08:59:28.765Z,21.90
2018-12-16T09:01:58.135Z,28.07
2018-12-16T09:04:27.617Z,28.87
2018-12-16T09:06:57.368Z,33.20
2018-12-16T09:09:27.159Z,38.37
2018-12-16T09:11:56.631Z,23.93
2018-12-16T09:14:26.016Z,28.60
2018-12-16T09:16:55.379Z,28.17
2018-12-16T09:19:24.833Z,23.03
2018-12-16T09:21:54.217Z,27.03
2018-12-16T09:24:23.675Z,28.10
2018-12-16T09:26:53.054Z,21.40
2018-12-16T09:29:22.417Z,19.73
2018-12-16T09:31:51.796Z,19.67
2018-12-16T09:34:21.181Z,18.30
2018-12-16T09:36:50.561Z,18.73
2018-12-16T09:39:19.918Z,17.40
2018-12-16T09:41:49.373Z,17.53
2018-12-16T09:44:18.748Z,19.57
2018-12-16T09:46:48.139Z,19.00
2018-12-16T09:49:17.534Z,16.93
2018-12-16T09:51:46.905Z,21.37
2018-12-16T09:54:16.360Z,22.53
2018-12-16T09:56:45.739Z,22.87
2018-12-16T09:59:15.109Z,24.60
2018-12-16T10:01:44.594Z,23.53
2018-12-16T10:04:13.857Z,21.40
2018-12-16T10:06:43.362Z,26.57
2018-12-16T10:09:12.729Z,28.37
2018-12-16T10:11:42.162Z,35.40
2018-12-16T10:14:11.555Z,41.70
2018-12-16T10:16:40.904Z,38.77
2018-12-16T10:19:10.412Z,37.60
2018-12-16T10:21:39.881Z,36.73
2018-12-16T10:24:09.261Z,28.60
2018-12-16T10:26:38.766Z,29.10
2018-12-16T10:29:08.168Z,26.07
2018-12-16T10:31:37.449Z,25.43
2018-12-16T10:34:06.914Z,25.60
2018-12-16T10:36:36.370Z,25.17
2018-12-16T10:39:07.912Z,27.87
2018-12-16T10:41:37.356Z,24.77
2018-12-16T10:44:06.725Z,24.57
2018-12-16T10:46:36.197Z,21.13
2018-12-16T10:49:05.788Z,18.70
2018-12-16T10:51:35.153Z,19.53
2018-12-16T10:54:04.752Z,22.20
2018-12-16T10:56:34.200Z,21.20
2018-12-16T10:59:03.613Z,22.90
2018-12-16T11:01:32.983Z,23.00
2018-12-16T11:04:02.243Z,19.63
2018-12-16T11:06:33.458Z,18.73
2018-12-16T11:09:04.447Z,19.13
2018-12-16T11:11:33.796Z,26.63
2018-12-16T11:14:03.200Z,29.33
2018-12-16T11:16:33.675Z,31.57
2018-12-16T11:19:05.803Z,36.10
2018-12-16T11:21:35.715Z,17.97
2018-12-16T11:24:05.508Z,21.13
2018-12-16T11:26:35.388Z,22.70
2018-12-16T11:29:04.801Z,21.47
2018-12-16T11:31:34.189Z,17.27
2018-12-16T11:34:03.585Z,17.77
2018-12-16T11:36:32.970Z,17.63
2018-12-16T11:39:02.609Z,18.27
2018-12-16T11:41:32.154Z,19.90
2018-12-16T11:44:01.571Z,15.93
2018-12-16T11:46:31.419Z,14.90
2018-12-16T11:49:00.833Z,16.60
2018-12-16T11:51:30.333Z,17.73
2018-12-16T11:53:59.757Z,16.00
2018-12-16T11:56:29.286Z,17.43
2018-12-16T11:58:58.744Z,15.80
2018-12-16T12:01:28.114Z,15.57
2018-12-16T12:03:57.641Z,16.03
2018-12-16T12:06:27.046Z,16.67
2018-12-16T12:08:56.441Z,13.67
2018-12-16T12:11:25.966Z,15.20
2018-12-16T12:13:55.461Z,13.90
2018-12-16T12:16:24.977Z,15.00
2018-12-16T12:19:01.166Z,18.77
2018-12-16T12:21:30.693Z,17.37
2018-12-16T12:24:00.253Z,16.97
2018-12-16T12:26:29.686Z,20.33
2018-12-16T12:28:59.130Z,17.70
2018-12-16T12:31:28.621Z,17.33
2018-12-16T12:33:58.009Z,18.23
2018-12-16T12:36:27.541Z,19.93
2018-12-16T12:38:56.913Z,21.20
2018-12-16T12:41:26.522Z,18.80
2018-12-16T12:43:55.905Z,16.73
2018-12-16T12:46:25.722Z,21.00
2018-12-16T12:48:55.209Z,19.00
2018-12-16T12:51:24.594Z,16.83
2018-12-16T12:53:54.176Z,19.60
2018-12-16T12:56:23.708Z,15.87
2018-12-16T12:58:53.191Z,15.77
2018-12-16T13:01:22.670Z,16.40
2018-12-16T13:03:52.236Z,17.43
2018-12-16T13:06:21.653Z,17.03
2018-12-16T13:08:51.045Z,18.00
2018-12-16T13:11:20.426Z,16.30
2018-12-16T13:13:50.573Z,17.20
2018-12-16T13:16:22.715Z,15.63
2018-12-16T13:18:52.190Z,15.00
2018-12-16T13:21:21.696Z,18.50
2018-12-16T13:23:51.084Z,18.27
2018-12-16T13:26:20.493Z,15.87
2018-12-16T13:28:49.958Z,17.87
2018-12-16T13:31:19.329Z,15.47
2018-12-16T13:33:48.681Z,18.57
2018-12-16T13:36:18.089Z,19.20
2018-12-16T13:38:47.453Z,21.97
2018-12-16T13:41:16.838Z,18.13
2018-12-16T13:43:46.217Z,18.30
2018-12-16T13:46:15.697Z,16.63
2018-12-16T13:48:45.287Z,15.53
2018-12-16T13:51:14.693Z,14.13
2018-12-16T13:53:44.086Z,18.70
2018-12-16T13:56:13.497Z,18.47
2018-12-16T13:58:42.898Z,16.80
2018-12-16T14:01:12.397Z,17.60
2018-12-16T14:03:41.825Z,20.20
2018-12-16T14:06:11.377Z,29.83
2018-12-16T14:08:40.781Z,23.43
2018-12-16T14:11:10.202Z,19.07
2018-12-16T14:13:39.597Z,18.73
2018-12-16T14:16:08.989Z,15.87
2018-12-16T14:18:38.382Z,17.83
2018-12-16T14:21:07.766Z,19.77
2018-12-16T14:23:37.258Z,21.70
2018-12-16T14:26:06.733Z,25.40
2018-12-16T14:28:36.129Z,24.80
2018-12-16T14:31:05.781Z,23.97
2018-12-16T14:33:35.346Z,21.50
2018-12-16T14:36:04.761Z,19.40
2018-12-16T14:38:34.465Z,20.90
2018-12-16T14:41:03.881Z,26.40
2018-12-16T14:43:33.243Z,24.00
2018-12-16T14:46:02.624Z,24.67
2018-12-16T14:48:31.993Z,24.10
2018-12-16T14:51:01.393Z,24.37
2018-12-16T14:53:30.897Z,20.97
2018-12-16T14:56:00.277Z,20.70
2018-12-16T14:58:29.664Z,21.77
2018-12-16T15:00:59.062Z,21.53
2018-12-16T15:03:28.464Z,26.10
2018-12-16T15:05:57.836Z,30.43
2018-12-16T15:08:27.522Z,33.03
2018-12-16T15:10:57.043Z,45.40
2018-12-16T15:13:26.541Z,25.90
2018-12-16T15:15:56.004Z,25.97
2018-12-16T15:18:25.561Z,32.37
2018-12-16T15:20:55.066Z,36.03
2018-12-16T15:23:24.638Z,42.93
2018-12-16T15:25:54.034Z,36.37
2018-12-16T15:28:23.408Z,39.67
2018-12-16T15:30:52.815Z,28.47
2018-12-16T15:33:22.209Z,34.20
2018-12-16T15:35:51.705Z,36.73
2018-12-16T15:38:21.369Z,32.63
2018-12-16T15:40:50.773Z,37.47
2018-12-16T15:43:20.178Z,33.93
2018-12-16T15:45:49.600Z,31.63
2018-12-16T15:48:19.424Z,32.47
2018-12-16T15:50:48.899Z,35.67
2018-12-16T15:53:18.376Z,35.50
2018-12-16T15:55:47.670Z,34.70
2018-12-16T15:58:17.200Z,30.23
2018-12-16T16:00:46.681Z,34.10
2018-12-16T16:03:16.122Z,30.60
2018-12-16T16:05:45.593Z,28.07
2018-12-16T16:08:16.526Z,31.33
2018-12-16T16:10:46.318Z,30.50
2018-12-16T16:13:15.807Z,27.57
2018-12-16T16:15:46.173Z,27.60
2018-12-16T16:18:15.577Z,26.47
2018-12-16T16:20:45.003Z,28.83
2018-12-16T16:23:14.537Z,30.80
2018-12-16T16:25:44.038Z,25.90
2018-12-16T16:28:13.677Z,35.97
2018-12-16T16:30:43.099Z,29.87
2018-12-16T16:33:12.803Z,28.20
2018-12-16T16:35:42.302Z,36.13
2018-12-16T16:38:11.717Z,29.27
2018-12-16T16:40:41.361Z,29.33
2018-12-16T16:43:10.861Z,31.07
2018-12-16T16:45:40.456Z,29.70
2018-12-16T16:48:09.994Z,33.93
2018-12-16T16:50:39.594Z,41.23
2018-12-16T16:53:09.250Z,45.80
2018-12-16T16:55:38.851Z,47.48
2018-12-16T16:58:08.288Z,48.00
2018-12-16T17:00:38.033Z,46.60
2018-12-16T17:03:07.607Z,41.47
2018-12-16T17:05:37.501Z,57.20
2018-12-16T17:08:07.034Z,67.00
2018-12-16T17:10:36.654Z,60.97
2018-12-16T17:13:06.504Z,44.63
2018-12-16T17:15:36.694Z,37.03
2018-12-16T17:18:06.494Z,37.33
2018-12-16T17:20:36.653Z,36.27
2018-12-16T17:23:06.553Z,34.90
2018-12-16T17:25:38.388Z,34.97
2018-12-16T17:28:09.443Z,37.93
2018-12-16T17:30:40.224Z,31.93
2018-12-16T17:33:09.987Z,33.20
2018-12-16T17:35:39.905Z,52.40
2018-12-16T17:38:09.380Z,53.95
2018-12-16T17:40:38.802Z,54.10
2018-12-16T17:43:08.221Z,47.23
2018-12-16T17:45:37.628Z,40.33
2018-12-16T17:48:07.296Z,33.30
2018-12-16T17:50:36.785Z,37.00
2018-12-16T17:53:07.815Z,38.33
2018-12-16T17:55:37.201Z,37.67
2018-12-16T17:58:06.765Z,32.23
2018-12-16T18:00:36.289Z,39.53
2018-12-16T18:03:05.572Z,35.90
2018-12-16T18:05:35.263Z,39.92
2018-12-16T18:08:04.685Z,41.13
2018-12-16T18:10:34.155Z,37.65
2018-12-16T18:13:03.668Z,38.10
2018-12-16T18:15:33.239Z,37.05
2018-12-16T18:18:02.820Z,35.78
2018-12-16T18:20:32.294Z,32.85
2018-12-16T18:23:07.722Z,40.15
2018-12-16T18:25:37.217Z,44.30
2018-12-16T18:28:06.662Z,35.95
2018-12-16T18:30:36.035Z,37.00
2018-12-16T18:33:05.606Z,36.88
2018-12-16T18:35:34.976Z,39.08
2018-12-16T18:38:04.534Z,40.90
2018-12-16T18:40:34.052Z,37.85
2018-12-16T18:43:03.571Z,36.88
2018-12-16T18:45:33.218Z,39.98
2018-12-16T18:48:03.010Z,39.13
2018-12-16T18:50:32.334Z,54.38
2018-12-16T18:53:01.755Z,49.15
2018-12-16T18:55:31.237Z,54.30
2018-12-16T18:58:00.757Z,52.98
2018-12-16T19:00:30.178Z,57.95
2018-12-16T19:02:59.542Z,59.77
2018-12-16T19:05:28.965Z,56.15
2018-12-16T19:07:58.661Z,53.63
2018-12-16T19:10:28.073Z,46.33
2018-12-16T19:12:57.473Z,37.70
2018-12-16T19:15:27.491Z,38.17
2018-12-16T19:17:57.060Z,41.30
2018-12-16T19:20:26.578Z,48.65
2018-12-16T19:22:56.106Z,54.73
2018-12-16T19:25:25.592Z,55.92
2018-12-16T19:27:55.086Z,57.75
2018-12-16T19:30:24.977Z,59.67
2018-12-16T19:32:54.593Z,59.80
2018-12-16T19:35:24.192Z,44.00
2018-12-16T19:37:53.562Z,40.38
2018-12-16T19:40:22.969Z,51.85
2018-12-16T19:42:52.411Z,54.53
2018-12-16T19:45:22.075Z,63.30
2018-12-16T19:47:51.466Z,55.45
2018-12-16T19:50:20.925Z,47.98
2018-12-16T19:52:50.490Z,48.42
2018-12-16T19:55:20.717Z,54.48
2018-12-16T19:57:50.109Z,52.00
2018-12-16T20:00:19.593Z,53.65
2018-12-16T20:02:49.136Z,59.45
2018-12-16T20:05:20.690Z,51.90
2018-12-16T20:07:50.349Z,55.20
2018-12-16T20:10:19.756Z,55.40
2018-12-16T20:12:49.358Z,53.60
2018-12-16T20:15:18.933Z,57.45
2018-12-16T20:17:48.427Z,51.18
2018-12-16T20:20:17.997Z,54.50
2018-12-16T20:22:48.217Z,52.45
2018-12-16T20:25:17.725Z,53.87
2018-12-16T20:27:47.232Z,57.25
2018-12-16T20:30:16.737Z,65.37
2018-12-16T20:32:46.522Z,101.47
2018-12-16T20:35:16.173Z,135.72
2018-12-16T20:37:46.069Z,99.40
2018-12-16T20:40:15.482Z,63.17
2018-12-16T20:42:44.859Z,57.08
2018-12-16T20:45:14.357Z,49.63
2018-12-16T20:47:43.857Z,45.58
2018-12-16T20:50:13.565Z,44.20
2018-12-16T20:52:42.969Z,63.78
2018-12-16T20:55:12.509Z,58.33
2018-12-16T20:57:41.878Z,49.13
2018-12-16T21:00:11.777Z,43.60
2018-12-16T21:02:41.270Z,42.25
2018-12-16T21:05:10.666Z,42.65
2018-12-16T21:07:40.149Z,45.98
2018-12-16T21:10:09.754Z,76.37
2018-12-16T21:12:44.615Z,48.58
2018-12-16T21:16:24.386Z,43.78
2018-12-16T21:18:53.892Z,45.88
2018-12-16T21:21:23.285Z,43.13
2018-12-16T21:23:53.050Z,44.98
2018-12-16T21:26:22.694Z,44.70
2018-12-16T21:28:52.133Z,44.90
2018-12-16T21:31:21.510Z,42.50
2018-12-16T21:33:50.890Z,43.58
2018-12-16T21:36:20.574Z,41.28
2018-12-16T21:38:49.931Z,40.58
2018-12-16T21:41:19.304Z,37.20
2018-12-16T21:43:48.783Z,44.90
2018-12-16T21:46:18.161Z,49.73
2018-12-16T21:48:47.644Z,53.42
2018-12-16T21:51:18.005Z,49.88
2018-12-16T21:53:49.631Z,50.67
2018-12-16T21:56:19.256Z,66.62
2018-12-16T21:58:48.666Z,66.25
2018-12-16T22:01:18.078Z,87.78
2018-12-16T22:03:47.591Z,212.57
2018-12-16T22:06:16.960Z,201.12
2018-12-16T22:08:46.353Z,193.95
2018-12-16T22:11:15.854Z,171.25
2018-12-16T22:13:45.221Z,95.28
2018-12-16T22:16:14.701Z,68.72
2018-12-16T22:18:44.073Z,49.25
2018-12-16T22:21:13.465Z,41.85
2018-12-16T22:23:42.830Z,42.33
2018-12-16T22:26:12.307Z,50.65
2018-12-16T22:28:41.705Z,46.70
2018-12-16T22:31:11.085Z,43.60
2018-12-16T22:33:40.469Z,44.33
2018-12-16T22:36:09.873Z,46.15
2018-12-16T22:38:39.343Z,49.53
2018-12-16T22:41:08.723Z,50.50
2018-12-16T22:43:38.105Z,54.45
2018-12-16T22:46:07.502Z,49.48
2018-12-16T22:48:37.104Z,47.25
2018-12-16T22:51:06.517Z,40.48
2018-12-16T22:53:35.901Z,46.20
2018-12-16T22:56:05.389Z,43.65
2018-12-16T22:58:34.968Z,42.33
2018-12-16T23:01:09.838Z,42.83
2018-12-16T23:03:39.320Z,38.75
2018-12-16T23:06:08.793Z,38.58
2018-12-16T23:08:38.168Z,36.77
2018-12-16T23:11:07.553Z,38.90
2018-12-16T23:13:36.924Z,40.80
2018-12-16T23:16:06.486Z,36.55
2018-12-16T23:18:35.967Z,39.08
2018-12-16T23:21:05.490Z,38.08
2018-12-16T23:23:34.900Z,37.35
2018-12-16T23:26:04.300Z,38.17
2018-12-16T23:28:33.698Z,38.55
2018-12-16T23:31:03.068Z,37.23
2018-12-16T23:33:32.553Z,35.17
2018-12-16T23:36:02.235Z,38.95
2018-12-16T23:38:31.661Z,36.77
2018-12-16T23:41:02.056Z,37.13
2018-12-16T23:43:31.453Z,36.00
2018-12-16T23:46:00.825Z,39.90
2018-12-16T23:48:30.197Z,33.33
2018-12-16T23:50:59.574Z,33.55
2018-12-16T23:53:28.949Z,35.78
2018-12-16T23:55:58.328Z,32.20
2018-12-16T23:58:27.796Z,31.82
